Time;durP1;ratioP1;P1;durP2;ratioP2;P2;SDS_P1;SDS_P2;PMS_P1;PMS_P2;Temp;Humidity;BMP_temperature;BMP_pressure;BME280_temperature;BME280_humidity;BME280_pressure;Samples;Min_cycle;Max_cycle;Signal;HPM_P1;HPM_P2
2021/12/05 00:16:54;;;;;;;;;;;22.90;27.00;;;;;;5127553;27;19972;-51
2021/12/05 00:18:01;;;;;;;;;;;23.20;26.90;;;;;;5122265;27;19930;-54
2021/12/05 00:23:42;;;;;;;;;;;23.10;27.00;;;;;;5038367;28;19925;-54
2021/12/05 00:26:11;;;;;;;;;;;22.90;27.10;;;;;;5043637;28;20460;-54
2021/12/05 00:29:03;;;;;;;;;;;23.00;27.10;;;;;;5081203;27;19923;-50
2021/12/05 00:34:26;;;;;;;;;;;23.10;27.00;;;;;;5126439;27;19931;-51
2021/12/05 00:47:58;;;;;;;;;;;23.00;27.10;;;;;;5064859;27;19928;-51
2021/12/05 01:09:02;;;;;;;;;;;23.00;27.00;;;;;;5126342;27;19923;-51
2021/12/05 01:16:35;;;;;;;;;;;22.90;27.00;;;;;;5126718;27;19937;-55
2021/12/05 01:19:01;;;;;;;;;;;22.90;27.10;;;;;;5121104;27;19923;-49
2021/12/05 01:21:27;;;;;;;;;;;23.00;27.00;;;;;;5120877;27;19928;-59
2021/12/05 01:24:00;;;;;;;;;;;23.00;26.90;;;;;;5126525;27;20031;-54
2021/12/05 01:26:37;;;;;;;;;;;22.60;27.50;;;;;;5120953;27;19923;-52
2021/12/05 01:29:16;;;;;;;;;;;22.70;27.20;;;;;;5122601;28;19988;-58
2021/12/05 01:31:52;;;;;;;;;;;22.90;27.00;;;;;;5108152;28;20070;-51
2021/12/05 01:34:50;;;;;;;;;;;23.00;26.80;;;;;;5120618;28;20317;-50
2021/12/05 01:45:23;;;;;;;;;;;23.00;26.80;;;;;;5106719;27;20126;-51
2021/12/05 01:48:14;;;;;;;;;;;23.10;26.70;;;;;;5127387;27;19927;-53
2021/12/05 01:53:31;;;;;;;;;;;22.90;27.00;;;;;;5125129;27;20396;-53
2021/12/05 01:58:55;;;;;;;;;;;22.90;27.00;;;;;;5130198;27;19988;-51
2021/12/05 02:12:23;;;;;;;;;;;23.00;26.90;;;;;;5124546;27;19924;-48
2021/12/05 02:33:59;;;;;;;;;;;22.90;26.90;;;;;;5129716;27;19923;-48
2021/12/05 02:41:41;;;;;;;;;;;23.10;26.60;;;;;;5129006;27;19972;-51
2021/12/05 02:44:28;;;;;;;;;;;22.90;26.80;;;;;;5123586;27;19927;-51
2021/12/05 02:46:59;;;;;;;;;;;23.00;26.60;;;;;;5121068;27;20170;-49
2021/12/05 02:49:25;;;;;;;;;;;23.00;26.70;;;;;;5129093;27;19924;-46
2021/12/05 02:51:56;;;;;;;;;;;23.00;26.60;;;;;;5105042;27;19927;-49
2021/12/05 02:54:22;;;;;;;;;;;23.10;26.40;;;;;;5123464;27;19924;-56
2021/12/05 02:56:50;;;;;;;;;;;22.90;26.50;;;;;;5128719;27;19923;-54
2021/12/05 03:01:49;;;;;;;;;;;22.80;26.50;;;;;;5128421;27;19983;-53
2021/12/05 03:04:15;;;;;;;;;;;23.00;26.40;;;;;;5124036;27;20558;-52
2021/12/05 03:06:50;;;;;;;;;;;23.00;26.30;;;;;;5103559;27;20007;-53
2021/12/05 03:09:15;;;;;;;;;;;22.90;26.40;;;;;;5129009;27;20435;-50
2021/12/05 03:11:43;;;;;;;;;;;23.00;26.30;;;;;;5122527;27;21234;-49
2021/12/05 03:14:09;;;;;;;;;;;23.00;26.30;;;;;;5123151;27;20393;-49
2021/12/05 03:16:35;;;;;;;;;;;23.00;26.30;;;;;;5128510;27;19923;-48
2021/12/05 03:19:01;;;;;;;;;;;23.10;26.40;;;;;;5122584;27;20052;-62
2021/12/05 03:21:27;;;;;;;;;;;22.90;26.40;;;;;;5103111;27;19928;-54
2021/12/05 03:23:52;;;;;;;;;;;22.80;26.60;;;;;;5128557;27;20062;-54
2021/12/05 03:26:20;;;;;;;;;;;22.80;26.60;;;;;;5123039;27;19928;-52
2021/12/05 03:28:46;;;;;;;;;;;22.80;26.60;;;;;;5128351;27;19923;-55
2021/12/05 03:31:12;;;;;;;;;;;22.80;26.60;;;;;;5103072;27;19950;-50
2021/12/05 03:33:38;;;;;;;;;;;22.90;26.60;;;;;;5122372;27;20209;-52
2021/12/05 03:36:04;;;;;;;;;;;22.90;26.60;;;;;;5128146;27;20383;-52
2021/12/05 03:38:30;;;;;;;;;;;22.80;26.60;;;;;;5122058;27;20073;-52
2021/12/05 03:40:55;;;;;;;;;;;22.90;26.60;;;;;;5123019;27;19923;-50
2021/12/05 03:43:21;;;;;;;;;;;22.90;26.60;;;;;;5128027;27;19923;-49
2021/12/05 03:45:51;;;;;;;;;;;23.00;26.40;;;;;;5122476;27;19927;-48
2021/12/05 03:48:17;;;;;;;;;;;23.00;26.30;;;;;;5127903;27;19973;-48
2021/12/05 03:50:43;;;;;;;;;;;23.10;26.20;;;;;;5122576;27;19924;-52
2021/12/05 03:53:09;;;;;;;;;;;23.00;26.20;;;;;;5122146;27;20324;-46
2021/12/05 03:55:35;;;;;;;;;;;23.10;26.10;;;;;;5127251;27;19927;-52
2021/12/05 03:58:00;;;;;;;;;;;23.00;26.10;;;;;;5103468;27;19931;-52
2021/12/05 04:00:28;;;;;;;;;;;23.00;26.10;;;;;;5122329;27;20481;-51
2021/12/05 04:02:54;;;;;;;;;;;23.00;26.20;;;;;;5127150;27;20474;-49
2021/12/05 04:05:19;;;;;;;;;;;23.00;26.10;;;;;;5122523;27;19927;-51
2021/12/05 04:07:48;;;;;;;;;;;22.80;26.30;;;;;;5124475;27;20064;-57
2021/12/05 04:10:14;;;;;;;;;;;22.90;26.20;;;;;;5126319;27;19924;-51
2021/12/05 04:12:40;;;;;;;;;;;22.80;26.20;;;;;;5121856;27;19927;-48
2021/12/05 04:15:06;;;;;;;;;;;23.00;26.10;;;;;;5126806;27;19927;-48
2021/12/05 04:17:32;;;;;;;;;;;23.00;26.10;;;;;;5122127;27;19923;-47
2021/12/05 04:19:58;;;;;;;;;;;23.10;26.00;;;;;;5122157;27;19930;-50
2021/12/05 04:22:24;;;;;;;;;;;23.00;26.00;;;;;;5127324;27;19923;-48
2021/12/05 04:24:49;;;;;;;;;;;23.00;26.00;;;;;;5121912;27;20022;-46
2021/12/05 04:27:16;;;;;;;;;;;23.00;26.10;;;;;;5121810;27;19923;-49
2021/12/05 04:29:42;;;;;;;;;;;23.10;25.90;;;;;;5126760;27;20374;-54
2021/12/05 04:32:08;;;;;;;;;;;22.80;26.20;;;;;;5121572;27;19937;-51
2021/12/05 04:34:33;;;;;;;;;;;22.80;26.10;;;;;;5126525;27;19927;-51
2021/12/05 04:36:59;;;;;;;;;;;22.90;26.00;;;;;;5117528;27;20123;-51
2021/12/05 04:39:25;;;;;;;;;;;22.90;25.90;;;;;;5121676;27;20381;-48
2021/12/05 04:41:51;;;;;;;;;;;23.10;25.70;;;;;;5127067;27;19930;-48
2021/12/05 04:44:17;;;;;;;;;;;23.20;25.70;;;;;;5121588;27;20345;-51
2021/12/05 04:46:43;;;;;;;;;;;23.00;25.80;;;;;;5102846;27;19924;-50
2021/12/05 04:49:08;;;;;;;;;;;23.00;25.90;;;;;;5126649;27;19935;-49
2021/12/05 04:51:36;;;;;;;;;;;23.00;25.90;;;;;;5120909;27;19955;-50
2021/12/05 04:54:02;;;;;;;;;;;23.00;25.90;;;;;;5126959;27;20461;-56
2021/12/05 04:56:28;;;;;;;;;;;22.90;25.80;;;;;;5103221;27;19986;-53
2021/12/05 04:58:54;;;;;;;;;;;22.90;25.90;;;;;;5121398;27;20004;-52
2021/12/05 05:01:20;;;;;;;;;;;23.00;25.70;;;;;;5127133;27;19929;-47
2021/12/05 05:03:46;;;;;;;;;;;23.00;25.70;;;;;;5121180;27;19935;-51
2021/12/05 05:06:18;;;;;;;;;;;23.00;25.80;;;;;;5120995;27;20107;-49
2021/12/05 05:08:44;;;;;;;;;;;23.00;25.70;;;;;;5126501;27;19923;-48
2021/12/05 05:11:11;;;;;;;;;;;23.10;25.70;;;;;;5120621;27;19923;-49
2021/12/05 05:13:37;;;;;;;;;;;23.20;25.80;;;;;;5122796;27;19929;-60
2021/12/05 05:16:04;;;;;;;;;;;22.80;26.10;;;;;;5124646;27;20386;-54
2021/12/05 05:18:40;;;;;;;;;;;22.70;26.40;;;;;;5121351;27;19927;-53
2021/12/05 05:39:43;;;;;;;;;;;22.80;26.30;;;;;;5126152;28;20317;-51
2021/12/05 05:49:55;;;;;;;;;;;22.80;26.40;;;;;;5120900;28;19923;-47
2021/12/05 05:52:21;;;;;;;;;;;23.00;26.20;;;;;;5121572;28;20351;-50
2021/12/05 05:54:48;;;;;;;;;;;23.00;26.10;;;;;;5125835;28;19938;-46
2021/12/05 05:57:25;;;;;;;;;;;23.10;25.90;;;;;;5120725;28;20345;-47
2021/12/05 06:00:08;;;;;;;;;;;23.00;26.00;;;;;;5109072;28;19924;-44
2021/12/05 06:05:18;;;;;;;;;;;23.00;26.00;;;;;;5120091;28;20022;-52
2021/12/05 06:07:45;;;;;;;;;;;22.80;26.10;;;;;;5088097;28;20018;-56
2021/12/05 06:10:12;;;;;;;;;;;22.80;26.10;;;;;;5105766;28;19923;-53
2021/12/05 06:12:38;;;;;;;;;;;22.80;26.10;;;;;;5120553;28;19930;-50
2021/12/05 06:15:05;;;;;;;;;;;22.80;26.10;;;;;;5126156;28;20416;-53
2021/12/05 06:17:30;;;;;;;;;;;22.80;26.10;;;;;;5120356;28;19923;-48
2021/12/05 06:19:57;;;;;;;;;;;22.90;26.00;;;;;;5120202;28;19969;-48
2021/12/05 06:22:22;;;;;;;;;;;22.90;26.00;;;;;;5125300;28;19924;-52
2021/12/05 06:24:48;;;;;;;;;;;22.90;26.00;;;;;;5119794;28;19924;-49
2021/12/05 06:27:14;;;;;;;;;;;22.90;26.00;;;;;;5122951;27;20004;-48
2021/12/05 06:29:47;;;;;;;;;;;22.90;26.00;;;;;;5129708;27;19927;-47
2021/12/05 06:32:35;;;;;;;;;;;22.90;25.90;;;;;;5124297;27;20331;-46
2021/12/05 06:43:01;;;;;;;;;;;23.00;25.70;;;;;;5125038;27;19929;-56
2021/12/05 06:48:11;;;;;;;;;;;23.00;25.70;;;;;;5123829;27;19927;-52
2021/12/05 06:50:37;;;;;;;;;;;22.80;25.90;;;;;;5123674;27;20425;-54
2021/12/05 06:53:06;;;;;;;;;;;22.70;26.00;;;;;;5109650;27;19928;-51
2021/12/05 06:55:32;;;;;;;;;;;22.70;26.00;;;;;;5123604;27;19923;-53
2021/12/05 06:57:57;;;;;;;;;;;22.70;26.00;;;;;;5128900;27;20007;-52
2021/12/05 07:00:25;;;;;;;;;;;22.70;26.00;;;;;;5123702;27;19932;-52
2021/12/05 07:02:51;;;;;;;;;;;22.70;25.90;;;;;;5123319;27;19923;-51
2021/12/05 07:08:02;;;;;;;;;;;22.70;26.00;;;;;;5123539;27;19924;-52
2021/12/05 07:10:30;;;;;;;;;;;22.70;26.00;;;;;;5123440;27;19924;-50
2021/12/05 07:13:37;;;;;;;;;;;22.60;26.00;;;;;;5128446;27;19923;-51
2021/12/05 07:15:59;;;;;;;;;;;22.70;25.90;;;;;;5120929;27;19933;-50
2021/12/05 07:23:44;;;;;;;;;;;22.70;25.90;;;;;;5123329;27;19957;-50
2021/12/05 07:26:15;;;;;;;;;;;22.70;25.90;;;;;;5121890;27;19945;-49
2021/12/05 07:42:25;;;;;;;;;;;22.80;25.80;;;;;;5122877;27;20536;-51
2021/12/05 07:44:51;;;;;;;;;;;22.80;25.80;;;;;;5122701;27;20035;-47
2021/12/05 07:47:19;;;;;;;;;;;22.80;25.80;;;;;;5128215;27;19956;-48
2021/12/05 07:49:46;;;;;;;;;;;22.80;25.80;;;;;;5122276;27;19930;-51
2021/12/05 07:52:17;;;;;;;;;;;22.80;25.70;;;;;;5126341;27;19930;-56
2021/12/05 07:54:47;;;;;;;;;;;22.80;25.80;;;;;;5125728;27;19957;-50
2021/12/05 07:57:23;;;;;;;;;;;22.80;25.70;;;;;;5121849;27;20306;-48
2021/12/05 08:16:19;;;;;;;;;;;23.00;25.60;;;;;;5121840;27;19945;-49
2021/12/05 08:18:45;;;;;;;;;;;22.90;25.60;;;;;;5109459;27;19938;-48
2021/12/05 08:21:11;;;;;;;;;;;22.90;25.70;;;;;;5121806;27;20366;-49
2021/12/05 08:23:37;;;;;;;;;;;22.80;25.70;;;;;;5122150;27;20191;-49
2021/12/05 08:26:15;;;;;;;;;;;22.90;25.50;;;;;;5127277;27;19976;-46
2021/12/05 08:33:56;;;;;;;;;;;22.90;25.50;;;;;;5126659;27;20159;-49
2021/12/05 08:39:38;;;;;;;;;;;22.90;25.50;;;;;;5121779;27;20548;-48
2021/12/05 09:21:02;;;;;;;;;;;22.90;25.70;;;;;;5126629;27;19937;-52
2021/12/05 09:40:08;;;;;;;;;;;23.00;25.60;;;;;;5126363;28;19923;-56
2021/12/05 10:06:55;;;;;;;;;;;23.00;25.70;;;;;;5129467;27;20024;-46
2021/12/05 10:12:55;;;;;;;;;;;23.10;25.70;;;;;;5125166;27;20155;-60
2021/12/05 10:15:01;;;;;;;;;;;22.90;26.00;;;;;;5115489;27;20293;-55
2021/12/05 10:17:47;;;;;;;;;;;22.70;26.30;;;;;;5124332;27;20026;-54
2021/12/05 10:26:04;;;;;;;;;;;22.70;26.20;;;;;;5104778;27;20178;-54
2021/12/05 10:34:57;;;;;;;;;;;22.80;26.10;;;;;;5129753;27;19980;-51
2021/12/05 10:37:10;;;;;;;;;;;22.80;26.10;;;;;;5122083;27;19942;-50
2021/12/05 10:39:36;;;;;;;;;;;23.00;25.80;;;;;;5105496;27;19924;-53
2021/12/05 10:42:34;;;;;;;;;;;23.00;25.70;;;;;;5129468;27;20294;-51
2021/12/05 10:45:00;;;;;;;;;;;22.90;25.90;;;;;;5126087;27;19995;-50
2021/12/05 10:47:35;;;;;;;;;;;23.00;25.80;;;;;;5124104;27;19927;-49
2021/12/05 10:50:20;;;;;;;;;;;22.90;25.80;;;;;;5129197;27;19938;-50
2021/12/05 10:52:46;;;;;;;;;;;23.00;25.80;;;;;;5127139;27;19923;-51
2021/12/05 10:55:11;;;;;;;;;;;23.00;25.70;;;;;;5123599;27;19942;-51
2021/12/05 10:57:41;;;;;;;;;;;23.00;25.70;;;;;;5129008;27;20393;-54
2021/12/05 11:00:11;;;;;;;;;;;22.90;25.60;;;;;;5123714;27;19927;-53
2021/12/05 11:02:37;;;;;;;;;;;23.00;25.70;;;;;;5123198;27;19930;-55
2021/12/05 11:05:03;;;;;;;;;;;23.00;25.70;;;;;;5129101;27;19959;-52
2021/12/05 11:07:34;;;;;;;;;;;23.00;25.60;;;;;;5123642;27;20138;-51
2021/12/05 11:10:02;;;;;;;;;;;23.10;25.60;;;;;;5123483;27;20125;-48
2021/12/05 11:12:31;;;;;;;;;;;23.10;25.60;;;;;;5128721;27;19923;-58
2021/12/05 11:14:58;;;;;;;;;;;23.00;25.70;;;;;;5123403;27;19930;-53
2021/12/05 11:17:28;;;;;;;;;;;22.90;25.80;;;;;;5126169;27;19945;-57
2021/12/05 11:19:54;;;;;;;;;;;23.00;25.70;;;;;;5127246;27;19931;-55
2021/12/05 11:22:21;;;;;;;;;;;23.00;25.70;;;;;;5104117;27;20018;-52
2021/12/05 11:24:47;;;;;;;;;;;23.00;25.70;;;;;;5128828;27;19997;-52
2021/12/05 11:27:17;;;;;;;;;;;23.10;25.40;;;;;;5123395;27;20306;-52
2021/12/05 11:29:43;;;;;;;;;;;23.10;25.30;;;;;;5123232;27;19923;-52
2021/12/05 11:32:10;;;;;;;;;;;23.00;25.20;;;;;;5128434;27;19972;-52
2021/12/05 11:34:35;;;;;;;;;;;23.10;25.00;;;;;;5122992;27;19923;-53
2021/12/05 11:37:01;;;;;;;;;;;23.10;24.90;;;;;;5122712;27;19971;-59
2021/12/05 11:39:27;;;;;;;;;;;23.10;24.90;;;;;;5127796;27;20022;-56
2021/12/05 11:41:55;;;;;;;;;;;23.00;25.00;;;;;;5122865;27;20325;-52
2021/12/05 11:44:22;;;;;;;;;;;23.00;25.00;;;;;;5128367;27;19930;-51
2021/12/05 11:46:48;;;;;;;;;;;23.00;24.90;;;;;;5122918;27;19924;-60
2021/12/05 11:49:17;;;;;;;;;;;23.00;24.90;;;;;;5123026;27;20014;-53
2021/12/05 11:51:50;;;;;;;;;;;22.90;25.10;;;;;;5128058;27;20323;-54
2021/12/05 11:54:20;;;;;;;;;;;23.00;24.90;;;;;;5122425;27;19923;-53
2021/12/05 11:57:18;;;;;;;;;;;23.00;24.90;;;;;;5122462;27;19934;-51
2021/12/05 11:59:45;;;;;;;;;;;23.00;24.80;;;;;;5068800;27;20027;-53
2021/12/05 12:02:17;;;;;;;;;;;23.00;24.90;;;;;;5122720;27;19929;-51
2021/12/05 12:04:52;;;;;;;;;;;23.00;25.00;;;;;;5122729;27;19927;-57
2021/12/05 12:07:17;;;;;;;;;;;23.10;24.90;;;;;;5128073;27;19971;-54
2021/12/05 12:09:43;;;;;;;;;;;22.90;25.10;;;;;;5122093;27;20527;-53
2021/12/05 12:12:09;;;;;;;;;;;23.00;25.00;;;;;;5103780;27;19927;-53
2021/12/05 12:14:35;;;;;;;;;;;23.00;25.00;;;;;;5127519;27;19927;-53
2021/12/05 12:17:03;;;;;;;;;;;23.00;25.10;;;;;;5121458;27;19931;-51
2021/12/05 12:19:29;;;;;;;;;;;23.00;25.20;;;;;;5122362;27;19972;-52
2021/12/05 12:21:58;;;;;;;;;;;23.00;25.20;;;;;;5127364;27;19923;-50
2021/12/05 12:24:27;;;;;;;;;;;23.00;25.10;;;;;;5121428;27;19966;-51
2021/12/05 12:26:53;;;;;;;;;;;23.10;25.10;;;;;;5127363;27;20301;-53
2021/12/05 12:29:18;;;;;;;;;;;22.80;25.40;;;;;;5103442;27;19958;-51
2021/12/05 12:31:46;;;;;;;;;;;22.80;25.30;;;;;;5121572;27;19946;-53
2021/12/05 12:34:12;;;;;;;;;;;22.90;25.30;;;;;;5127020;27;19923;-53
2021/12/05 12:36:42;;;;;;;;;;;23.00;25.20;;;;;;5121624;27;19923;-52
2021/12/05 12:39:17;;;;;;;;;;;22.90;25.30;;;;;;5122015;27;19923;-53
2021/12/05 12:41:47;;;;;;;;;;;22.90;25.40;;;;;;5127189;27;19933;-53
2021/12/05 12:44:13;;;;;;;;;;;22.90;25.40;;;;;;5102975;27;20379;-51
2021/12/05 12:46:44;;;;;;;;;;;23.00;25.40;;;;;;5121335;27;19973;-53
2021/12/05 12:49:15;;;;;;;;;;;23.00;25.30;;;;;;5126682;27;19923;-49
2021/12/05 12:51:59;;;;;;;;;;;23.10;25.40;;;;;;5121138;27;20438;-60
2021/12/05 12:54:25;;;;;;;;;;;22.90;25.40;;;;;;5120743;27;20387;-54
2021/12/05 12:57:11;;;;;;;;;;;22.70;25.70;;;;;;5126895;27;19931;-54
2021/12/05 12:59:39;;;;;;;;;;;22.80;25.60;;;;;;5121227;27;20017;-54
2021/12/05 13:10:11;;;;;;;;;;;23.00;25.30;;;;;;5120866;27;19950;-52
2021/12/05 13:12:40;;;;;;;;;;;23.00;25.30;;;;;;5125989;27;19930;-51
2021/12/05 13:15:07;;;;;;;;;;;23.00;25.30;;;;;;5121488;27;19927;-49
2021/12/05 13:17:39;;;;;;;;;;;23.00;25.20;;;;;;5121046;27;19955;-52
2021/12/05 13:20:05;;;;;;;;;;;23.10;25.10;;;;;;5126542;27;20017;-55
2021/12/05 13:22:31;;;;;;;;;;;23.00;25.10;;;;;;5120826;27;19923;-50
2021/12/05 13:25:03;;;;;;;;;;;23.10;24.90;;;;;;5126133;27;20018;-59
2021/12/05 13:27:31;;;;;;;;;;;23.00;24.80;;;;;;5120788;27;20357;-52
2021/12/05 13:29:57;;;;;;;;;;;23.00;24.70;;;;;;5120432;27;20375;-52
2021/12/05 13:32:25;;;;;;;;;;;23.00;24.70;;;;;;5126047;28;19923;-52
2021/12/05 13:34:52;;;;;;;;;;;23.00;24.80;;;;;;5120911;27;19934;-55
2021/12/05 13:37:22;;;;;;;;;;;23.10;24.90;;;;;;5120356;28;19971;-53
2021/12/05 13:39:49;;;;;;;;;;;23.00;25.10;;;;;;5126502;28;19923;-51
2021/12/05 13:42:16;;;;;;;;;;;23.10;25.10;;;;;;5120905;28;19972;-51
2021/12/05 13:47:31;;;;;;;;;;;23.00;25.00;;;;;;5126127;28;19928;-51
2021/12/05 13:49:57;;;;;;;;;;;23.10;24.90;;;;;;5119996;28;19923;-53
2021/12/05 13:52:28;;;;;;;;;;;23.00;24.90;;;;;;5121119;28;20014;-54
2021/12/05 13:54:54;;;;;;;;;;;22.90;24.90;;;;;;5126244;28;19928;-55
2021/12/05 13:57:20;;;;;;;;;;;22.90;25.00;;;;;;5102175;28;20012;-53
2021/12/05 13:59:46;;;;;;;;;;;22.90;24.80;;;;;;5126184;28;19932;-53
2021/12/05 14:02:13;;;;;;;;;;;23.00;24.70;;;;;;5102366;28;19923;-50
2021/12/05 14:04:39;;;;;;;;;;;23.10;24.70;;;;;;5120493;28;19927;-56
2021/12/05 14:07:06;;;;;;;;;;;22.90;24.90;;;;;;5125747;28;19971;-52
2021/12/05 14:09:38;;;;;;;;;;;22.90;24.80;;;;;;5120560;28;20324;-53
2021/12/05 14:12:11;;;;;;;;;;;23.00;24.80;;;;;;5120616;28;20379;-52
2021/12/05 14:14:42;;;;;;;;;;;22.90;24.80;;;;;;5126024;28;20056;-52
2021/12/05 14:17:09;;;;;;;;;;;22.90;24.90;;;;;;5120619;28;19934;-53
2021/12/05 14:19:35;;;;;;;;;;;23.00;24.90;;;;;;5120543;28;20138;-50
2021/12/05 14:22:02;;;;;;;;;;;23.00;24.90;;;;;;5125383;28;19928;-50
2021/12/05 14:24:29;;;;;;;;;;;23.00;24.80;;;;;;5120196;28;20003;-49
2021/12/05 14:26:55;;;;;;;;;;;23.00;24.80;;;;;;5125311;28;20011;-51
2021/12/05 14:29:26;;;;;;;;;;;23.10;24.90;;;;;;5120579;28;19928;-57
2021/12/05 14:31:54;;;;;;;;;;;23.00;24.90;;;;;;5120325;28;20379;-53
2021/12/05 14:34:20;;;;;;;;;;;23.00;25.00;;;;;;5125915;28;19980;-51
2021/12/05 14:36:56;;;;;;;;;;;23.00;24.90;;;;;;5120380;28;19927;-51
2021/12/05 14:39:28;;;;;;;;;;;23.00;24.90;;;;;;5120024;28;19931;-49
2021/12/05 14:41:56;;;;;;;;;;;23.00;25.00;;;;;;5125426;28;19930;-48
2021/12/05 14:44:22;;;;;;;;;;;23.00;24.90;;;;;;5119646;28;19937;-50
2021/12/05 14:46:52;;;;;;;;;;;23.10;24.80;;;;;;5120453;27;19923;-60
2021/12/05 14:49:19;;;;;;;;;;;23.00;25.10;;;;;;5129425;27;19933;-54
2021/12/05 14:51:45;;;;;;;;;;;22.80;25.40;;;;;;5123685;27;20018;-53
2021/12/05 14:54:16;;;;;;;;;;;22.90;25.20;;;;;;5126998;27;20388;-58
2021/12/05 14:56:42;;;;;;;;;;;22.80;25.20;;;;;;5128394;27;19949;-53
2021/12/05 14:59:10;;;;;;;;;;;22.80;25.30;;;;;;5123247;27;19931;-52
2021/12/05 15:01:36;;;;;;;;;;;22.80;25.50;;;;;;5110674;27;20313;-49
2021/12/05 15:04:04;;;;;;;;;;;22.80;25.60;;;;;;5123226;27;19941;-53
2021/12/05 15:06:34;;;;;;;;;;;22.90;25.80;;;;;;5123746;27;19923;-54
2021/12/05 15:09:00;;;;;;;;;;;22.80;25.90;;;;;;5111011;27;20478;-51
2021/12/05 15:11:26;;;;;;;;;;;22.90;25.90;;;;;;5123445;27;19952;-50
2021/12/05 15:14:00;;;;;;;;;;;22.90;25.90;;;;;;5123388;27;19927;-53
2021/12/05 15:16:26;;;;;;;;;;;22.90;25.90;;;;;;5128595;27;19930;-52
2021/12/05 15:18:52;;;;;;;;;;;23.00;26.00;;;;;;5104546;27;19927;-49
2021/12/05 15:21:18;;;;;;;;;;;22.90;26.10;;;;;;5125325;27;19927;-54
2021/12/05 15:23:44;;;;;;;;;;;22.90;26.10;;;;;;5126208;27;19930;-54
2021/12/05 15:26:11;;;;;;;;;;;22.90;26.10;;;;;;5123468;27;19923;-53
2021/12/05 15:28:37;;;;;;;;;;;23.00;26.00;;;;;;5128776;27;20286;-51
2021/12/05 15:31:03;;;;;;;;;;;23.00;25.90;;;;;;5123303;27;19958;-46
2021/12/05 15:33:29;;;;;;;;;;;23.00;26.00;;;;;;5122879;27;19970;-48
2021/12/05 15:35:58;;;;;;;;;;;23.10;25.90;;;;;;5128166;27;19923;-49
2021/12/05 15:38:25;;;;;;;;;;;23.00;26.00;;;;;;5122814;27;19923;-51
2021/12/05 15:40:52;;;;;;;;;;;22.90;26.00;;;;;;5122240;27;19944;-50
2021/12/05 15:43:19;;;;;;;;;;;23.00;25.90;;;;;;5128442;27;19923;-50
2021/12/05 15:45:45;;;;;;;;;;;23.00;25.90;;;;;;5104490;27;20006;-52
2021/12/05 15:48:20;;;;;;;;;;;23.00;26.10;;;;;;5128015;27;19924;-51
2021/12/05 15:50:46;;;;;;;;;;;23.00;26.10;;;;;;5124413;27;19924;-52
2021/12/05 15:53:12;;;;;;;;;;;23.00;26.20;;;;;;5104087;27;19927;-49
2021/12/05 15:55:48;;;;;;;;;;;23.10;26.00;;;;;;5127830;27;20346;-47
2021/12/05 15:58:19;;;;;;;;;;;23.10;26.10;;;;;;5121709;27;21090;-51
2021/12/05 16:00:50;;;;;;;;;;;23.10;26.10;;;;;;5121780;27;19932;-52
2021/12/05 16:03:17;;;;;;;;;;;23.00;26.20;;;;;;5109902;27;19933;-50
2021/12/05 16:05:44;;;;;;;;;;;22.90;26.20;;;;;;5122414;27;20043;-52
2021/12/05 16:08:10;;;;;;;;;;;23.00;26.20;;;;;;5122470;27;20163;-52
2021/12/05 16:10:37;;;;;;;;;;;23.00;26.30;;;;;;5127520;27;19949;-50
2021/12/05 16:13:07;;;;;;;;;;;23.00;26.20;;;;;;5103531;27;20458;-47
2021/12/05 16:15:33;;;;;;;;;;;23.00;26.20;;;;;;5122993;27;19924;-53
2021/12/05 16:17:59;;;;;;;;;;;23.10;26.20;;;;;;5126097;27;20302;-46
2021/12/05 16:20:35;;;;;;;;;;;23.20;26.10;;;;;;5122225;27;19975;-54
2021/12/05 16:23:03;;;;;;;;;;;22.70;26.70;;;;;;5127523;27;20379;-55
2021/12/05 16:25:29;;;;;;;;;;;22.60;26.80;;;;;;5121983;27;19928;-54
2021/12/05 16:27:56;;;;;;;;;;;22.80;26.60;;;;;;5122139;27;20267;-55
2021/12/05 16:30:22;;;;;;;;;;;22.80;26.60;;;;;;5127148;27;20343;-53
2021/12/05 16:32:48;;;;;;;;;;;22.80;26.50;;;;;;5121481;27;20022;-52
2021/12/05 16:35:27;;;;;;;;;;;22.80;26.50;;;;;;5121624;27;19927;-54
2021/12/05 16:37:53;;;;;;;;;;;22.80;26.40;;;;;;5106688;28;20402;-52
2021/12/05 16:40:19;;;;;;;;;;;22.80;26.30;;;;;;5121985;27;19948;-51
2021/12/05 16:42:44;;;;;;;;;;;22.80;26.40;;;;;;5121675;27;20013;-50
2021/12/05 16:45:11;;;;;;;;;;;22.80;26.20;;;;;;5127157;27;19924;-51
2021/12/05 16:47:37;;;;;;;;;;;22.80;26.30;;;;;;5102906;27;19923;-50
2021/12/05 16:50:03;;;;;;;;;;;22.90;26.10;;;;;;5126617;27;19974;-47
2021/12/05 16:52:33;;;;;;;;;;;22.90;26.10;;;;;;5121305;27;19931;-49
2021/12/05 16:55:03;;;;;;;;;;;22.80;26.20;;;;;;5120899;27;19927;-53
2021/12/05 16:57:40;;;;;;;;;;;23.00;26.10;;;;;;5126954;27;19931;-51
2021/12/05 17:00:13;;;;;;;;;;;23.00;25.90;;;;;;5121305;27;19932;-51
2021/12/05 17:02:43;;;;;;;;;;;23.00;25.90;;;;;;5121118;27;20014;-48
2021/12/05 17:05:17;;;;;;;;;;;23.00;25.80;;;;;;5108155;27;20006;-45
2021/12/05 17:07:56;;;;;;;;;;;23.10;25.80;;;;;;5121136;27;19923;-45
2021/12/05 17:10:24;;;;;;;;;;;23.20;25.70;;;;;;5120964;27;19972;-56
2021/12/05 17:12:57;;;;;;;;;;;22.70;26.20;;;;;;5126176;27;20322;-54
2021/12/05 17:15:24;;;;;;;;;;;22.70;26.20;;;;;;5121121;27;20284;-53
2021/12/05 17:17:50;;;;;;;;;;;22.70;26.30;;;;;;5121327;27;19924;-53
2021/12/05 17:20:17;;;;;;;;;;;22.70;26.30;;;;;;5126549;27;19933;-53
2021/12/05 17:22:50;;;;;;;;;;;22.80;26.20;;;;;;5121200;27;19923;-53
2021/12/05 17:25:25;;;;;;;;;;;22.70;26.20;;;;;;5103084;28;20326;-57
2021/12/05 17:27:51;;;;;;;;;;;22.80;26.20;;;;;;5107985;28;19923;-52
2021/12/05 17:30:17;;;;;;;;;;;22.80;26.20;;;;;;5120805;27;19980;-51
2021/12/05 17:32:42;;;;;;;;;;;22.80;26.20;;;;;;5125760;27;19931;-51
2021/12/05 17:35:09;;;;;;;;;;;22.70;26.20;;;;;;5120969;28;19931;-51
2021/12/05 17:37:34;;;;;;;;;;;22.80;26.20;;;;;;5120961;28;19923;-50
2021/12/05 17:40:04;;;;;;;;;;;22.80;26.10;;;;;;5126528;28;19927;-50
2021/12/05 17:42:32;;;;;;;;;;;22.80;26.10;;;;;;5120735;28;19958;-51
2021/12/05 17:44:59;;;;;;;;;;;22.90;26.00;;;;;;5120413;28;19934;-49
2021/12/05 17:47:25;;;;;;;;;;;22.80;26.10;;;;;;5126026;28;20014;-48
2021/12/05 17:49:52;;;;;;;;;;;22.90;26.00;;;;;;5120307;28;20027;-51
2021/12/05 17:52:18;;;;;;;;;;;22.80;26.00;;;;;;5122501;28;19923;-56
2021/12/05 17:54:55;;;;;;;;;;;22.90;25.90;;;;;;5125154;28;20019;-49
2021/12/05 17:57:31;;;;;;;;;;;23.00;25.90;;;;;;5120598;28;20011;-49
2021/12/05 18:02:45;;;;;;;;;;;23.00;26.10;;;;;;5093585;28;19998;-47
2021/12/05 18:05:13;;;;;;;;;;;23.00;26.00;;;;;;5120383;28;20286;-48
2021/12/05 18:07:39;;;;;;;;;;;23.00;26.00;;;;;;5125407;28;19957;-52
2021/12/05 18:10:05;;;;;;;;;;;23.00;26.00;;;;;;5121196;28;19946;-46
2021/12/05 18:12:36;;;;;;;;;;;23.00;25.90;;;;;;5121108;28;20139;-55
2021/12/05 18:15:03;;;;;;;;;;;22.90;25.90;;;;;;5121938;28;19945;-48
2021/12/05 18:17:28;;;;;;;;;;;22.90;26.00;;;;;;5120608;28;19924;-47
2021/12/05 18:19:54;;;;;;;;;;;22.90;26.10;;;;;;5120257;28;20283;-46
2021/12/05 18:22:20;;;;;;;;;;;23.00;26.00;;;;;;5126785;27;19927;-51
2021/12/05 18:24:46;;;;;;;;;;;23.00;25.90;;;;;;5124305;27;19923;-53
2021/12/05 18:27:12;;;;;;;;;;;22.80;26.20;;;;;;5124075;27;19923;-58
2021/12/05 18:29:38;;;;;;;;;;;22.80;26.20;;;;;;5129442;27;19923;-55
2021/12/05 18:32:04;;;;;;;;;;;22.90;26.00;;;;;;5124362;27;19930;-50
2021/12/05 18:34:30;;;;;;;;;;;22.80;26.10;;;;;;5129461;27;20022;-51
2021/12/05 18:36:57;;;;;;;;;;;22.80;26.00;;;;;;5124315;27;20006;-50
2021/12/05 18:39:36;;;;;;;;;;;22.90;26.00;;;;;;5123689;27;19923;-49
2021/12/05 18:42:04;;;;;;;;;;;22.90;26.10;;;;;;5129169;27;19927;-47
2021/12/05 18:44:32;;;;;;;;;;;22.90;26.00;;;;;;5105274;27;19932;-49
2021/12/05 18:46:58;;;;;;;;;;;23.00;26.00;;;;;;5123259;27;19926;-47
2021/12/05 18:49:24;;;;;;;;;;;23.00;25.80;;;;;;5129464;27;19973;-47
2021/12/05 18:51:50;;;;;;;;;;;23.00;25.90;;;;;;5119742;27;19927;-45
2021/12/05 18:54:16;;;;;;;;;;;23.00;25.90;;;;;;5124886;27;19931;-55
2021/12/05 18:56:42;;;;;;;;;;;23.10;25.90;;;;;;5128497;27;20034;-51
2021/12/05 18:59:08;;;;;;;;;;;23.00;26.00;;;;;;5123688;27;19927;-50
2021/12/05 19:04:25;;;;;;;;;;;23.00;26.00;;;;;;5109053;27;20370;-46
2021/12/05 19:06:55;;;;;;;;;;;23.10;25.90;;;;;;5123465;27;19928;-57
2021/12/05 19:09:28;;;;;;;;;;;23.00;26.00;;;;;;5129013;27;19931;-52
2021/12/05 19:11:56;;;;;;;;;;;22.80;26.20;;;;;;5123716;27;19923;-52
2021/12/05 19:14:25;;;;;;;;;;;22.90;26.10;;;;;;5123535;27;19954;-53
2021/12/05 19:16:52;;;;;;;;;;;22.70;26.20;;;;;;5128658;27;19927;-50
2021/12/05 19:19:18;;;;;;;;;;;22.80;26.20;;;;;;5123189;27;19931;-52
2021/12/05 19:21:46;;;;;;;;;;;22.80;26.10;;;;;;5123113;27;20541;-51
2021/12/05 19:24:12;;;;;;;;;;;22.80;26.20;;;;;;5128453;27;19930;-50
2021/12/05 19:26:38;;;;;;;;;;;22.80;26.20;;;;;;5103132;27;20473;-48
2021/12/05 19:29:04;;;;;;;;;;;22.90;26.20;;;;;;5124945;27;19960;-53